Main page
METAR-TAF:

METAR-TAF

Airports :

Jackson County Airport (Reynolds Field)

Jackson, Michigan, United States

latitude: 42-15-35N, longitude: 084-27-34W, elevation: 1000 ft

Current weather observation

The report was made 47 minutes ago, at 03:56 UTC
Wind 5 mph from the Northwest
Temperature 64°F
Humidity 64%
Pressure 30.04 in. Hg
Visibility: 10 miles
Clear sky

METAR: KJXN 180356Z AUTO 31004KT 10SM CLR 18/11 A3004 RMK AO2 SLP169 T01780111

Time: 00:43 (04:43 UTC)

Forecast

The report was made 5 hours and 3 minutes ago, at 23:40 UTC
Forecast valid from 18 at 00 UTC to 18 at 24 UTC
Wind 12 mph from the West/Northwest with gusts up to 21 mph
Visibility: 6 miles
Few clouds at a height of 7000 ft
From 18 at 0200 UTC
Wind 7 mph from the Northwest
Visibility: 6 miles
Few clouds at a height of 25000 ft

TAF: KJXN 172340Z 1800/1824 30010G18KT P6SM FEW070 FM180200 31006KT P6SM FEW250

Weather observations and forecasts of more than 4000 airports (METAR and TAF reports).

The available stations are represented by yellow and red dots on the map.

Hover mouse over dot to see the name of the station.

Then click to see weather observations and forecasts.

To change the map : click on the green buttons with a black cross to zoom in, on the green button with a dash to zoom out, or on the green arrows for adjacent maps.


METAR-TAF: